Terminal Aerodrome Forecast
Issued by NWS

Home | Current Version | Previous Version | Text Only | Print | Product List | Glossary On
Versions: 1 2 3 4 5 6 7 8 9 10 11 12 13 14 15 16 17 18 19 20 21 22 23 24 25 26 27 28 29 30 31 32 33 34 35 36 37 38 39 40 41 42 43 44
000
FTUS45 KGJT 292339
TAFVEL
TAF
KVEL 292339Z 3000/3024 08005KT P6SM VCTS SCT090CB BKN150
     FM300300 31006KT P6SM FEW090 SCT150
     FM300800 VRB02KT P6SM FEW250
     FM301900 20006KT P6SM SCT200=

USA.gov is the U.S. government's official web portal to all federal, state and local government web resources and services.